createdAt,value
2019-02-06T00:01:19.523Z,2.02
2019-02-06T00:06:23.904Z,1.74
2019-02-06T00:11:28.568Z,1.79
2019-02-06T00:16:32.940Z,1.97
2019-02-06T00:21:37.356Z,2.01
2019-02-06T00:26:41.723Z,1.90
2019-02-06T00:31:46.127Z,2.02
2019-02-06T00:36:50.983Z,1.96
2019-02-06T00:41:55.388Z,1.83
2019-02-06T00:46:59.773Z,2.02
2019-02-06T00:52:04.143Z,2.00
2019-02-06T00:57:08.543Z,1.88
2019-02-06T01:02:13.131Z,1.97
2019-02-06T01:07:17.602Z,2.08
2019-02-06T01:12:22.959Z,2.09
2019-02-06T01:17:27.322Z,2.02
2019-02-06T01:22:34.074Z,1.95
2019-02-06T01:27:38.541Z,2.15
2019-02-06T01:32:42.935Z,1.77
2019-02-06T01:37:47.329Z,2.06
2019-02-06T01:42:51.716Z,1.88
2019-02-06T01:47:56.074Z,1.84
2019-02-06T01:53:00.499Z,1.87
2019-02-06T01:58:05.170Z,1.90
2019-02-06T02:03:09.816Z,1.87
2019-02-06T02:08:14.144Z,1.99
2019-02-06T02:13:18.499Z,1.57
2019-02-06T02:18:22.913Z,1.87
2019-02-06T02:23:27.454Z,1.98
2019-02-06T02:28:32.234Z,2.03
2019-02-06T02:33:36.599Z,1.68
2019-02-06T02:38:41.042Z,1.94
2019-02-06T02:43:45.696Z,1.70
2019-02-06T02:48:50.094Z,1.57
2019-02-06T02:53:54.440Z,1.78
2019-02-06T02:58:58.875Z,1.94
2019-02-06T03:04:04.904Z,1.79
2019-02-06T03:09:11.197Z,1.67
2019-02-06T03:14:15.727Z,1.94
2019-02-06T03:19:20.184Z,2.02
2019-02-06T03:24:24.560Z,1.67
2019-02-06T03:29:29.199Z,1.48
2019-02-06T03:34:34.046Z,1.80
2019-02-06T03:39:38.540Z,1.56
2019-02-06T03:44:43.521Z,1.96
2019-02-06T03:49:47.952Z,1.79
2019-02-06T03:54:52.422Z,1.92
2019-02-06T03:59:56.749Z,1.92
2019-02-06T04:05:01.131Z,1.72
2019-02-06T04:10:11.942Z,1.47
2019-02-06T04:15:16.352Z,1.48
2019-02-06T04:20:20.708Z,1.80
2019-02-06T04:25:25.055Z,1.58
2019-02-06T04:30:29.816Z,1.58
2019-02-06T04:35:34.265Z,1.47
2019-02-06T04:40:38.708Z,1.43
2019-02-06T04:45:43.117Z,1.40
2019-02-06T04:50:47.492Z,1.28
2019-02-06T04:55:51.897Z,1.17
2019-02-06T05:00:56.261Z,1.28
2019-02-06T05:06:00.695Z,0.91
2019-02-06T05:11:05.106Z,1.16
2019-02-06T05:16:09.485Z,1.30
2019-02-06T05:21:13.835Z,1.43
2019-02-06T05:26:18.381Z,1.41
2019-02-06T05:31:23.117Z,1.37
2019-02-06T05:36:27.475Z,1.39
2019-02-06T05:41:31.874Z,1.51
2019-02-06T05:46:36.208Z,1.49
2019-02-06T05:51:40.608Z,1.48
2019-02-06T05:56:44.979Z,1.48
2019-02-06T06:01:49.333Z,1.50
2019-02-06T06:06:53.923Z,1.86
2019-02-06T06:11:58.304Z,1.47
2019-02-06T06:17:02.811Z,1.22
2019-02-06T06:22:07.278Z,1.71
2019-02-06T06:27:11.732Z,1.71
2019-02-06T06:32:16.150Z,1.58
2019-02-06T06:37:21.287Z,1.63
2019-02-06T06:42:25.665Z,1.60
2019-02-06T06:47:30.058Z,1.47
2019-02-06T06:52:34.512Z,1.67
2019-02-06T06:57:39.011Z,1.55
2019-02-06T07:02:43.386Z,1.44
2019-02-06T07:07:47.807Z,1.52
2019-02-06T07:12:52.506Z,1.62
2019-02-06T07:17:56.887Z,1.67
2019-02-06T07:23:01.379Z,1.56
2019-02-06T07:28:05.774Z,1.67
2019-02-06T07:33:10.166Z,1.69
2019-02-06T07:38:23.861Z,1.73
2019-02-06T07:43:20.951Z,1.29
2019-02-06T07:48:25.379Z,1.40
2019-02-06T07:53:29.717Z,1.56
2019-02-06T07:58:34.063Z,2.03
2019-02-06T08:03:38.682Z,1.94
2019-02-06T08:08:43.055Z,1.86
2019-02-06T08:13:47.521Z,1.83
2019-02-06T08:18:51.885Z,2.00
2019-02-06T08:23:56.294Z,1.60
2019-02-06T08:29:00.686Z,2.03
2019-02-06T08:34:05.338Z,1.90
2019-02-06T08:39:09.766Z,1.85
2019-02-06T08:44:14.163Z,1.99
2019-02-06T08:49:18.535Z,2.23
2019-02-06T08:54:22.934Z,2.22
2019-02-06T08:59:27.334Z,2.07
2019-02-06T09:04:32.166Z,2.20
2019-02-06T09:09:36.552Z,1.99
2019-02-06T09:14:40.908Z,2.45
2019-02-06T09:19:45.292Z,2.32
2019-02-06T09:24:49.711Z,2.42
2019-02-06T09:29:54.540Z,2.32
2019-02-06T09:34:58.917Z,2.48
2019-02-06T09:40:09.345Z,2.56
2019-02-06T09:45:15.442Z,2.57
2019-02-06T09:50:28.241Z,2.48
2019-02-06T09:55:32.581Z,2.90
2019-02-06T10:00:38.341Z,2.76
2019-02-06T10:05:42.780Z,2.89
2019-02-06T10:10:47.271Z,2.97
2019-02-06T10:15:51.657Z,3.01
2019-02-06T10:20:56.107Z,3.13
2019-02-06T10:26:00.541Z,3.13
2019-02-06T10:31:04.992Z,2.98
2019-02-06T10:36:09.388Z,2.98
2019-02-06T10:41:13.835Z,3.04
2019-02-06T10:46:18.524Z,3.26
2019-02-06T10:51:22.902Z,3.35
2019-02-06T10:56:27.255Z,3.26
2019-02-06T11:01:31.878Z,3.33
2019-02-06T11:06:36.488Z,3.32
2019-02-06T11:11:41.003Z,3.29
2019-02-06T11:16:45.355Z,3.48
2019-02-06T11:21:49.726Z,3.54
2019-02-06T11:26:54.077Z,3.44
2019-02-06T11:31:58.796Z,3.37
2019-02-06T11:37:03.156Z,3.59
2019-02-06T11:42:08.785Z,3.54
2019-02-06T11:47:13.154Z,3.65
2019-02-06T11:52:17.537Z,3.76
2019-02-06T11:57:24.090Z,3.75
2019-02-06T12:02:37.067Z,3.76
2019-02-06T12:07:34.227Z,3.62
2019-02-06T12:12:38.626Z,3.58
2019-02-06T12:17:43.056Z,3.98
2019-02-06T12:22:47.435Z,3.88
2019-02-06T12:27:54.378Z,3.89
2019-02-06T12:32:59.277Z,3.83
2019-02-06T12:38:03.751Z,3.79
2019-02-06T12:43:10.520Z,3.82
2019-02-06T12:48:14.465Z,3.94
2019-02-06T12:53:18.850Z,3.84
2019-02-06T12:58:26.084Z,3.84
2019-02-06T13:03:29.343Z,3.84
2019-02-06T13:08:33.723Z,3.81
2019-02-06T13:13:38.155Z,3.87
2019-02-06T13:18:42.493Z,3.66
2019-02-06T13:23:49.487Z,3.80
2019-02-06T13:28:52.962Z,3.58
2019-02-06T13:33:57.316Z,3.69
2019-02-06T13:39:01.688Z,3.63
2019-02-06T13:44:07.738Z,3.31
2019-02-06T13:49:12.472Z,3.54
2019-02-06T13:54:16.996Z,3.48
2019-02-06T13:59:21.398Z,3.36
2019-02-06T14:04:25.776Z,3.14
2019-02-06T14:09:30.201Z,3.18
2019-02-06T14:14:34.554Z,3.24
2019-02-06T14:19:38.953Z,3.24
2019-02-06T14:24:45.159Z,3.28
2019-02-06T14:30:01.617Z,3.20
2019-02-06T14:35:30.467Z,3.04
2019-02-06T14:40:43.517Z,3.18
2019-02-06T14:45:53.940Z,2.93
2019-02-06T14:51:32.981Z,3.12
2019-02-06T14:56:49.377Z,2.99
2019-02-06T15:02:02.884Z,2.85
2019-02-06T15:07:28.330Z,2.80
2019-02-06T15:12:41.533Z,2.83
2019-02-06T15:18:14.872Z,2.75
2019-02-06T15:23:33.164Z,2.55
2019-02-06T15:28:49.666Z,2.73
2019-02-06T15:34:18.290Z,2.52
2019-02-06T15:39:37.452Z,2.33
2019-02-06T15:45:00.220Z,2.41
2019-02-06T15:50:26.739Z,2.43
2019-02-06T15:55:46.779Z,2.34
2019-02-06T16:00:57.034Z,2.24
2019-02-06T16:06:24.483Z,2.20
2019-02-06T16:11:41.924Z,2.11
2019-02-06T16:17:12.768Z,2.01
2019-02-06T16:22:39.652Z,1.89
2019-02-06T16:28:07.700Z,1.95
2019-02-06T16:33:31.699Z,1.81
2019-02-06T16:38:44.948Z,1.72
2019-02-06T16:44:11.844Z,1.33
2019-02-06T16:49:19.464Z,1.75
2019-02-06T16:54:32.814Z,1.64
2019-02-06T16:59:45.933Z,1.57
2019-02-06T17:05:08.834Z,1.38
2019-02-06T17:10:21.874Z,2.52
2019-02-06T17:15:38.343Z,1.48
2019-02-06T17:21:05.580Z,1.35
2019-02-06T17:26:22.242Z,1.48
2019-02-06T17:31:32.562Z,1.30
2019-02-06T17:36:49.370Z,1.40
2019-02-06T17:42:15.904Z,1.50
2019-02-06T17:47:41.932Z,1.50
2019-02-06T17:53:05.632Z,1.49
2019-02-06T17:58:10.090Z,1.25
2019-02-06T18:03:17.087Z,1.48
2019-02-06T18:08:21.917Z,1.25
2019-02-06T18:13:26.265Z,1.47
2019-02-06T18:18:30.614Z,1.36
2019-02-06T18:23:34.959Z,1.09
2019-02-06T18:28:39.695Z,1.39
2019-02-06T18:33:44.743Z,1.37
2019-02-06T18:38:51.023Z,1.18
2019-02-06T18:43:55.551Z,1.12
2019-02-06T18:49:00.011Z,1.36
2019-02-06T18:54:06.109Z,1.12
2019-02-06T18:59:10.554Z,1.12
2019-02-06T19:04:14.999Z,1.26
2019-02-06T19:09:19.533Z,1.09
2019-02-06T19:14:23.909Z,1.25
2019-02-06T19:19:28.269Z,1.14
2019-02-06T19:24:32.796Z,0.98
2019-02-06T19:29:37.260Z,1.12
2019-02-06T19:34:41.811Z,1.01
2019-02-06T19:39:46.176Z,1.12
2019-02-06T19:44:50.629Z,0.86
2019-02-06T19:49:55.265Z,0.86
2019-02-06T19:54:59.771Z,1.01
2019-02-06T20:00:10.402Z,1.03
2019-02-06T20:05:16.966Z,0.76
2019-02-06T20:10:32.994Z,0.87
2019-02-06T20:15:38.442Z,0.75
2019-02-06T20:20:42.822Z,0.75
2019-02-06T20:25:47.254Z,0.95
2019-02-06T20:30:51.659Z,0.93
2019-02-06T20:35:57.816Z,0.87
2019-02-06T20:41:02.198Z,0.88
2019-02-06T20:46:06.571Z,1.09
2019-02-06T20:51:11.150Z,1.11
2019-02-06T20:56:15.503Z,0.77
2019-02-06T21:01:19.871Z,0.84
2019-02-06T21:06:24.294Z,1.00
2019-02-06T21:11:28.678Z,0.85
2019-02-06T21:16:33.100Z,0.87
2019-02-06T21:21:37.511Z,0.82
2019-02-06T21:26:44.429Z,0.85
2019-02-06T21:31:48.309Z,0.71
2019-02-06T21:36:53.235Z,0.54
2019-02-06T21:41:57.591Z,0.69
2019-02-06T21:47:01.979Z,0.77
2019-02-06T21:52:06.783Z,0.62
2019-02-06T21:57:11.246Z,0.39
2019-02-06T22:02:15.625Z,0.59
2019-02-06T22:07:20.024Z,0.88
2019-02-06T22:12:24.397Z,0.72
2019-02-06T22:17:28.823Z,0.48
2019-02-06T22:22:33.179Z,0.52
2019-02-06T22:27:38.927Z,0.62
2019-02-06T22:32:43.325Z,0.47
2019-02-06T22:37:47.723Z,0.60
2019-02-06T22:42:52.369Z,0.61
2019-02-06T22:47:56.818Z,0.77
2019-02-06T22:53:02.848Z,0.49
2019-02-06T22:58:07.271Z,0.23
2019-02-06T23:03:11.794Z,0.32
2019-02-06T23:08:16.239Z,0.26
2019-02-06T23:13:20.655Z,0.37
2019-02-06T23:18:25.148Z,0.66
2019-02-06T23:23:29.582Z,0.13
2019-02-06T23:28:33.973Z,0.26
2019-02-06T23:33:38.328Z,0.26
2019-02-06T23:38:42.742Z,0.37
2019-02-06T23:43:47.142Z,0.34
2019-02-06T23:48:51.491Z,0.56
2019-02-06T23:53:55.897Z,0.46
2019-02-06T23:59:00.315Z,0.45
